createdAt,value
2022-08-02T00:01:25.114Z,20.61
2022-08-02T00:06:28.056Z,20.39
2022-08-02T00:11:30.850Z,20.40
2022-08-02T00:16:37.979Z,20.38
2022-08-02T00:21:41.378Z,20.30
2022-08-02T00:26:44.190Z,20.31
2022-08-02T00:31:48.389Z,20.21
2022-08-02T00:36:52.047Z,19.97
2022-08-02T00:41:55.060Z,19.93
2022-08-02T00:46:59.256Z,20.01
2022-08-02T00:52:02.331Z,19.98
2022-08-02T00:57:05.215Z,19.87
2022-08-02T01:02:10.202Z,19.84
2022-08-02T01:07:14.438Z,19.75
2022-08-02T01:12:17.733Z,19.82
2022-08-02T01:17:31.411Z,19.83
2022-08-02T01:23:01.682Z,19.80
2022-08-02T01:28:29.485Z,19.72
2022-08-02T01:33:40.526Z,19.71
2022-08-02T01:38:47.424Z,19.60
2022-08-02T01:43:54.949Z,19.36
2022-08-02T01:49:00.641Z,19.32
2022-08-02T01:54:04.016Z,19.28
2022-08-02T01:59:12.064Z,19.06
2022-08-02T02:04:16.990Z,19.00
2022-08-02T02:09:21.661Z,19.01
2022-08-02T02:14:26.284Z,19.04
2022-08-02T02:19:30.231Z,19.03
2022-08-02T02:24:33.319Z,18.94
2022-08-02T02:29:44.428Z,18.91
2022-08-02T02:34:52.154Z,18.73
2022-08-02T02:39:58.035Z,18.59
2022-08-02T02:45:04.251Z,18.60
2022-08-02T02:50:08.454Z,18.55
2022-08-02T02:55:12.170Z,18.46
2022-08-02T03:00:16.649Z,18.33
2022-08-02T03:05:19.478Z,18.08
2022-08-02T03:10:22.487Z,17.92
2022-08-02T03:15:28.649Z,17.86
2022-08-02T03:20:31.478Z,17.97
2022-08-02T03:25:34.534Z,17.95
2022-08-02T03:30:38.713Z,17.91
2022-08-02T03:35:43.902Z,17.94
2022-08-02T03:40:47.654Z,17.93
2022-08-02T03:45:52.995Z,17.93
2022-08-02T03:50:57.238Z,17.91
2022-08-02T03:56:00.526Z,17.90
2022-08-02T04:01:05.021Z,17.91
2022-08-02T04:06:07.935Z,17.94
2022-08-02T04:11:28.519Z,17.90
2022-08-02T04:16:42.196Z,17.94
2022-08-02T04:21:49.965Z,17.90
2022-08-02T04:26:57.861Z,17.80
2022-08-02T04:32:08.934Z,17.61
2022-08-02T04:37:14.089Z,17.57
2022-08-02T04:42:22.018Z,17.64
2022-08-02T04:48:01.491Z,17.67
2022-08-02T04:52:49.395Z,17.75
2022-08-02T04:57:58.186Z,17.82
2022-08-02T05:03:02.827Z,17.90
2022-08-02T05:08:06.064Z,17.97
2022-08-02T05:13:08.845Z,18.01
2022-08-02T05:18:13.016Z,17.95
2022-08-02T05:23:16.140Z,18.00
2022-08-02T05:28:19.092Z,18.09
2022-08-02T05:33:25.084Z,18.15
2022-08-02T05:38:31.117Z,18.28
2022-08-02T05:43:34.761Z,18.52
2022-08-02T05:48:38.946Z,18.69
2022-08-02T05:53:47.673Z,18.86
2022-08-02T05:58:54.215Z,19.02
2022-08-02T06:04:01.251Z,19.19
2022-08-02T06:09:06.762Z,19.29
2022-08-02T06:14:09.709Z,19.40
2022-08-02T06:19:14.452Z,19.54
2022-08-02T06:24:19.707Z,19.73
2022-08-02T06:29:23.262Z,19.87
2022-08-02T06:34:27.639Z,20.04
2022-08-02T06:39:36.913Z,20.22
2022-08-02T06:44:48.101Z,20.21
2022-08-02T06:49:56.368Z,20.28
2022-08-02T06:55:00.547Z,20.37
2022-08-02T07:00:09.195Z,20.51
2022-08-02T07:05:13.506Z,20.67
2022-08-02T07:10:16.396Z,20.80
2022-08-02T07:15:19.298Z,20.95
2022-08-02T07:20:23.544Z,21.11
2022-08-02T07:25:26.420Z,21.18
2022-08-02T07:30:49.189Z,21.37
2022-08-02T07:35:53.894Z,21.44
2022-08-02T07:40:57.578Z,21.62
2022-08-02T07:46:00.676Z,21.76
2022-08-02T07:51:05.422Z,21.85
2022-08-02T07:56:08.195Z,21.96
2022-08-02T08:01:11.171Z,22.14
2022-08-02T08:06:15.949Z,22.32
2022-08-02T08:11:19.161Z,22.52
2022-08-02T08:16:22.183Z,22.73
2022-08-02T08:21:26.378Z,22.85
2022-08-02T08:26:29.074Z,22.99
2022-08-02T08:31:31.897Z,23.18
2022-08-02T08:36:36.094Z,23.37
2022-08-02T08:41:38.667Z,23.49
2022-08-02T08:46:44.014Z,23.61
2022-08-02T08:51:48.224Z,23.72
2022-08-02T08:56:52.675Z,23.87
2022-08-02T09:01:56.982Z,23.98
2022-08-02T09:07:01.203Z,24.07
2022-08-02T09:12:15.357Z,24.14
2022-08-02T09:17:21.412Z,24.32
2022-08-02T09:22:26.150Z,24.45
2022-08-02T09:27:36.541Z,24.49
2022-08-02T09:32:46.499Z,24.64
2022-08-02T09:37:50.751Z,24.79
2022-08-02T09:42:59.903Z,24.85
2022-08-02T09:48:03.378Z,24.93
2022-08-02T09:53:12.885Z,24.95
2022-08-02T09:58:19.735Z,24.92
2022-08-02T10:03:24.499Z,24.89
2022-08-02T10:08:36.197Z,25.00
2022-08-02T10:13:39.285Z,25.12
2022-08-02T10:18:42.346Z,25.25
2022-08-02T10:23:49.930Z,25.43
2022-08-02T10:28:54.975Z,25.64
2022-08-02T10:34:01.127Z,25.74
2022-08-02T10:39:06.297Z,25.97
2022-08-02T10:44:24.893Z,26.08
2022-08-02T10:49:39.685Z,26.16
2022-08-02T10:54:49.018Z,26.31
2022-08-02T10:59:53.811Z,26.37
2022-08-02T11:05:06.562Z,26.43
2022-08-02T11:10:31.126Z,26.45
2022-08-02T11:15:50.562Z,26.62
2022-08-02T11:21:24.703Z,26.71
2022-08-02T11:26:47.069Z,26.72
2022-08-02T11:31:49.950Z,26.98
2022-08-02T11:36:54.174Z,27.23
2022-08-02T11:42:00.394Z,27.23
2022-08-02T11:47:04.545Z,27.42
2022-08-02T11:52:11.074Z,27.57
2022-08-02T11:57:20.304Z,27.79
2022-08-02T12:02:27.082Z,28.16
2022-08-02T12:07:35.323Z,28.21
2022-08-02T12:12:50.642Z,28.33
2022-08-02T12:18:12.001Z,28.54
2022-08-02T12:23:15.302Z,28.70
2022-08-02T12:28:22.457Z,28.58
2022-08-02T12:33:28.983Z,28.74
2022-08-02T12:38:31.809Z,28.78
2022-08-02T12:43:44.528Z,29.07
2022-08-02T12:49:02.655Z,29.10
2022-08-02T12:54:17.688Z,29.48
2022-08-02T12:59:38.903Z,29.74
2022-08-02T13:04:50.272Z,29.84
2022-08-02T13:10:00.392Z,29.95
2022-08-02T13:15:12.671Z,30.25
2022-08-02T13:20:31.924Z,29.87
2022-08-02T13:25:34.784Z,30.06
2022-08-02T13:30:39.593Z,30.14
2022-08-02T13:35:43.172Z,30.58
2022-08-02T13:41:04.622Z,30.91
2022-08-02T13:46:09.252Z,30.94
2022-08-02T13:51:14.872Z,31.25
2022-08-02T13:56:17.843Z,31.39
2022-08-02T14:01:22.097Z,31.65
2022-08-02T14:06:25.355Z,31.84
2022-08-02T14:11:28.158Z,32.19
2022-08-02T14:16:33.203Z,32.16
2022-08-02T14:21:46.445Z,32.66
2022-08-02T14:26:51.305Z,33.42
2022-08-02T14:31:55.525Z,34.72
2022-08-02T14:36:58.424Z,35.77
2022-08-02T14:42:01.276Z,36.89
2022-08-02T14:47:05.986Z,37.83
2022-08-02T14:52:08.857Z,38.48
2022-08-02T14:57:12.239Z,38.68
2022-08-02T15:02:16.683Z,39.29
2022-08-02T15:07:19.814Z,39.76
2022-08-02T15:12:22.637Z,40.12
2022-08-02T15:17:26.868Z,40.31
2022-08-02T15:22:29.735Z,40.46
2022-08-02T15:27:33.909Z,40.70
2022-08-02T15:32:41.631Z,40.82
2022-08-02T15:37:56.605Z,41.21
2022-08-02T15:42:59.827Z,41.29
2022-08-02T15:48:04.214Z,41.60
2022-08-02T15:53:07.097Z,41.38
2022-08-02T15:58:16.818Z,41.51
2022-08-02T16:03:22.399Z,41.17
2022-08-02T16:08:26.447Z,40.89
2022-08-02T16:13:52.971Z,40.62
2022-08-02T16:18:58.838Z,41.04
2022-08-02T16:24:03.367Z,41.30
2022-08-02T16:29:06.422Z,41.41
2022-08-02T16:34:10.623Z,41.23
2022-08-02T16:39:13.550Z,40.90
2022-08-02T16:50:04.902Z,41.25
2022-08-02T16:55:09.982Z,41.71
2022-08-02T17:00:15.688Z,41.54
2022-08-02T17:05:21.170Z,41.70
2022-08-02T17:10:24.055Z,42.21
2022-08-02T17:16:01.122Z,42.12
2022-08-02T17:20:51.153Z,41.63
2022-08-02T17:25:54.003Z,41.21
2022-08-02T17:30:58.686Z,40.99
2022-08-02T17:36:02.958Z,40.55
2022-08-02T17:41:06.239Z,40.77
2022-08-02T17:46:17.971Z,40.40
2022-08-02T17:51:33.266Z,39.86
2022-08-02T17:56:45.540Z,39.47
2022-08-02T18:01:52.965Z,38.03
2022-08-02T18:07:03.880Z,36.27
2022-08-02T18:12:07.436Z,35.01
2022-08-02T18:17:10.214Z,34.02
2022-08-02T18:22:15.094Z,33.14
2022-08-02T18:27:18.502Z,32.40
2022-08-02T18:32:37.809Z,31.76
2022-08-02T18:37:56.706Z,31.18
2022-08-02T18:42:59.915Z,30.70
2022-08-02T18:48:07.821Z,30.40
2022-08-02T18:53:12.086Z,30.00
2022-08-02T18:58:20.240Z,29.84
2022-08-02T19:03:23.914Z,29.63
2022-08-02T19:08:27.939Z,29.46
2022-08-02T19:13:30.594Z,29.40
2022-08-02T19:18:33.387Z,29.17
2022-08-02T19:23:54.590Z,29.07
2022-08-02T19:28:57.739Z,28.98
2022-08-02T19:34:06.063Z,28.83
2022-08-02T19:39:16.898Z,28.65
2022-08-02T19:44:27.115Z,28.47
2022-08-02T19:49:39.984Z,28.33
2022-08-02T19:54:55.847Z,28.07
2022-08-02T20:00:00.162Z,27.94
2022-08-02T20:05:08.307Z,27.76
2022-08-02T20:10:24.621Z,27.49
2022-08-02T20:15:55.764Z,27.33
2022-08-02T20:20:51.429Z,27.02
2022-08-02T20:25:55.962Z,26.74
2022-08-02T20:30:58.908Z,26.50
2022-08-02T20:36:12.060Z,26.32
2022-08-02T20:41:21.440Z,26.24
2022-08-02T20:46:24.787Z,26.11
2022-08-02T20:51:33.421Z,26.00
2022-08-02T20:56:38.599Z,25.96
2022-08-02T21:01:41.705Z,25.93
2022-08-02T21:07:00.437Z,25.82
2022-08-02T21:12:05.150Z,25.66
2022-08-02T21:17:08.737Z,25.55
2022-08-02T21:22:12.534Z,25.40
2022-08-02T21:27:52.706Z,25.27
2022-08-02T21:32:39.417Z,25.05
2022-08-02T21:37:44.743Z,24.85
2022-08-02T21:42:49.339Z,24.69
2022-08-02T21:47:52.141Z,24.54
2022-08-02T21:52:54.961Z,24.36
2022-08-02T21:57:59.154Z,24.23
2022-08-02T22:03:22.287Z,24.16
2022-08-02T22:08:24.965Z,24.05
2022-08-02T22:13:38.697Z,24.11
2022-08-02T22:18:52.635Z,24.08
2022-08-02T22:23:55.620Z,24.06
2022-08-02T22:29:00.202Z,23.96
2022-08-02T22:39:33.548Z,23.69
2022-08-02T22:44:37.733Z,23.59
2022-08-02T22:49:51.955Z,23.46
2022-08-02T22:54:58.766Z,23.38
2022-08-02T22:58:48.779Z,40.90
2022-08-02T23:00:07.132Z,23.26
2022-08-02T23:05:10.399Z,23.17
2022-08-02T23:10:13.323Z,22.94
2022-08-02T23:15:17.546Z,22.95
2022-08-02T23:20:20.152Z,22.91
2022-08-02T23:25:23.111Z,22.83
2022-08-02T23:30:28.318Z,22.80
2022-08-02T23:35:31.302Z,22.78
2022-08-02T23:40:40.375Z,22.69
2022-08-02T23:45:47.515Z,22.55
2022-08-02T23:50:50.403Z,22.43
2022-08-02T23:55:53.300Z,22.23
